Norwalk, Connecticut
Current Conditions -  °F | °C
As of 3:52 PM on Thursday 20 Nov 2014 (Local Time) from KBDR Reporting Station
Clear Clear  
Wind Chill: 39°   Ceiling: Unl
Heat Index: 45°   Visibility: 10mi
Dew Point: 23°   Wind: 14mph
Humidity: 42%   Direction: 260°W
Pressure: 29.82"   Gusts: 23mph
Location:  41.11°N, 73.41°W
Report Text: KBDR 202052Z 26012G20KT 10SM CLR 07/M05 A2982 RMK AO2 SLP099 T00721050 55007
Loading
Personal Weather Stations






























Interactive Weather Map New forecast layout! Learn more

10-Day Weather Forecast

Advertisements
Track Severe Weather on mobile